Airfield :
LOGIN :

Register | Disclaimer

   EN    FR    IT 

 










Legend :    VFR   Marginal VFR   IFR   Intensive IFR   Very Intensive IFR
Visi :
Ceiling :
>= 8 km
>= 3000ft
5 to 8 km
1000 to 3000 ft
1500m to 5 km
500 to 1000 ft
800 to 1500m
200 to 500 ft
< 800m
< 200 ft
Symbols :   Thunderstorms  Fog  Heavy snow  Heavy precipitations  Wind > 20 kt
SIGMETs :     Misc.  Thunderstorms  Icing  Turbulence  Mountain Waves  Volcanic Ashes






- Airport Elevation : 287 ft


LFRL - Lanveoc Poulmic

CURRENT METAR :
  • 281530Z AUTO 08008KT 040V130 CAVOK 26/07 Q1025 NOSIG

EXPIRED METARs :
  • 281500Z AUTO 09009KT CAVOK 26/07 Q1025 NOSIG
  • 281430Z AUTO 08010KT CAVOK 26/08 Q1026 NOSIG
  • 281400Z AUTO 07009KT 040V100 CAVOK 26/10 Q1026 NOSIG
  • 281330Z AUTO 07008KT CAVOK 26/11 Q1026 NOSIG
  • 281300Z AUTO 07009KT CAVOK 25/12 Q1027 NOSIG

TAF TAF LFRL
Valid from the 28 at 12:00 until the 29 at 12:00 UTC


281100Z 2812/2912 09010KT CAVOK



MET'MAP, your aeronautical weather chart ! - Copyright ORBIFLY December 2007 - Disclaimer

ORBIFLY MET'MAP TEAM :

Programming & Development : Alexandra Zaïnal
Concept & original design : Baudouin d'Aumeries
Assistance for programming : Marc-Olivier Méhu
Technical & hardware support : Manuel Goepfert

Contact : metmap@orbifly.com




SOURCES & CREDITS :

   NOAA